Time;durP1;ratioP1;P1;durP2;ratioP2;P2;SDS_P1;SDS_P2;PMS_P1;PMS_P2;Temp;Humidity;BMP_temperature;BMP_pressure;BME280_temperature;BME280_humidity;BME280_pressure;Samples;Min_cycle;Max_cycle;Signal;HPM_P1;HPM_P2
2020/08/04 00:01:47;;;;;;;11.49;10.56;;;;;;;22.40;65.45;100020.53;;;;-57
2020/08/04 00:04:47;;;;;;;9.35;8.57;;;;;;;22.39;65.44;100017.61;;;;-57
2020/08/04 00:07:48;;;;;;;12.06;11.09;;;;;;;22.40;65.45;100023.23;;;;-56
2020/08/04 00:10:47;;;;;;;11.70;10.78;;;;;;;22.39;65.46;100021.92;;;;-57
2020/08/04 00:13:48;;;;;;;10.18;9.27;;;;;;;22.38;65.52;100020.63;;;;-57
2020/08/04 00:16:47;;;;;;;11.16;10.16;;;;;;;22.38;65.46;100022.02;;;;-57
2020/08/04 00:19:48;;;;;;;12.43;11.39;;;;;;;22.38;65.49;100018.20;;;;-57
2020/08/04 00:22:48;;;;;;;11.81;10.81;;;;;;;22.37;65.47;100016.64;;;;-57
2020/08/04 00:25:48;;;;;;;11.53;10.53;;;;;;;22.38;65.46;100017.38;;;;-57
2020/08/04 00:28:48;;;;;;;11.81;10.75;;;;;;;22.36;65.47;100019.59;;;;-57
2020/08/04 00:31:47;;;;;;;11.21;10.21;;;;;;;22.37;65.48;100019.99;;;;-57
2020/08/04 00:34:47;;;;;;;12.93;11.86;;;;;;;22.35;65.48;100022.07;;;;-57
2020/08/04 00:37:47;;;;;;;13.03;11.97;;;;;;;22.35;65.49;100018.79;;;;-57
2020/08/04 00:40:47;;;;;;;13.79;12.66;;;;;;;22.35;65.43;100021.56;;;;-57
2020/08/04 00:43:48;;;;;;;11.35;10.45;;;;;;;22.35;65.44;100022.81;;;;-57
2020/08/04 00:46:47;;;;;;;12.50;11.41;;;;;;;22.34;65.46;100021.99;;;;-57
2020/08/04 00:49:48;;;;;;;12.24;11.21;;;;;;;22.34;65.44;100021.02;;;;-57
2020/08/04 00:52:47;;;;;;;13.96;12.84;;;;;;;22.34;65.57;100022.50;;;;-57
2020/08/04 00:55:48;;;;;;;13.39;12.31;;;;;;;22.33;65.46;100021.11;;;;-56
2020/08/04 00:58:47;;;;;;;12.53;11.44;;;;;;;22.32;65.48;100020.15;;;;-57
2020/08/04 01:01:48;;;;;;;13.77;12.64;;;;;;;22.32;65.51;100029.94;;;;-57
2020/08/04 01:04:47;;;;;;;12.67;11.57;;;;;;;22.31;65.48;100031.52;;;;-57
2020/08/04 01:07:47;;;;;;;16.39;15.02;;;;;;;22.32;65.46;100030.67;;;;-56
2020/08/04 01:10:48;;;;;;;15.61;14.31;;;;;;;22.31;65.47;100025.71;;;;-57
2020/08/04 01:13:48;;;;;;;14.59;13.37;;;;;;;22.30;65.45;100026.27;;;;-57
2020/08/04 01:16:48;;;;;;;12.53;11.51;;;;;;;22.30;65.47;100025.55;;;;-57
2020/08/04 01:19:48;;;;;;;14.23;13.07;;;;;;;22.30;65.41;100029.63;;;;-57
2020/08/04 01:22:48;;;;;;;16.21;14.87;;;;;;;22.29;65.46;100026.79;;;;-57
2020/08/04 01:25:48;;;;;;;15.11;13.84;;;;;;;22.29;65.43;100027.05;;;;-57
2020/08/04 01:28:47;;;;;;;13.50;12.37;;;;;;;22.29;65.40;100025.01;;;;-57
2020/08/04 01:31:48;;;;;;;15.29;13.95;;;;;;;22.29;65.43;100021.17;;;;-57
2020/08/04 01:34:47;;;;;;;16.78;15.39;;;;;;;22.29;65.42;100021.17;;;;-57
2020/08/04 01:37:47;;;;;;;14.05;12.91;;;;;;;22.28;65.45;100018.15;;;;-57
2020/08/04 01:40:47;;;;;;;17.95;16.46;;;;;;;22.28;65.46;100017.73;;;;-57
2020/08/04 01:43:47;;;;;;;20.29;18.56;;;;;;;22.28;65.39;100019.44;;;;-57
2020/08/04 01:46:47;;;;;;;18.87;17.27;;;;;;;22.27;65.42;100019.30;;;;-57
2020/08/04 01:49:47;;;;;;;12.63;11.57;;;;;;;22.28;65.38;100022.06;;;;-57
2020/08/04 01:52:47;;;;;;;17.89;16.31;;;;;;;22.28;65.44;100024.59;;;;-57
2020/08/04 01:55:47;;;;;;;20.41;18.76;;;;;;;22.27;65.35;100023.06;;;;-57
2020/08/04 01:58:47;;;;;;;16.35;15.04;;;;;;;22.26;65.37;100024.69;;;;-57
2020/08/04 02:01:47;;;;;;;18.84;17.28;;;;;;;22.26;65.36;100024.03;;;;-57
2020/08/04 02:04:47;;;;;;;21.81;20.08;;;;;;;22.27;65.32;100025.77;;;;-57
2020/08/04 02:07:47;;;;;;;21.13;19.39;;;;;;;22.26;65.39;100029.09;;;;-57
2020/08/04 02:10:48;;;;;;;21.87;20.07;;;;;;;22.26;65.37;100028.70;;;;-57
2020/08/04 02:13:48;;;;;;;22.33;20.49;;;;;;;22.26;65.38;100029.42;;;;-57
2020/08/04 02:16:48;;;;;;;22.54;20.68;;;;;;;22.26;65.35;100023.81;;;;-57
2020/08/04 02:19:48;;;;;;;22.58;20.77;;;;;;;22.26;65.31;100026.42;;;;-57
2020/08/04 02:22:48;;;;;;;22.25;20.45;;;;;;;22.26;65.35;100021.69;;;;-57
2020/08/04 02:25:47;;;;;;;17.35;15.87;;;;;;;22.25;65.37;100025.88;;;;-57
2020/08/04 02:28:47;;;;;;;26.10;24.01;;;;;;;22.24;65.33;100028.16;;;;-57
2020/08/04 02:31:48;;;;;;;21.48;19.76;;;;;;;22.24;65.25;100031.75;;;;-57
2020/08/04 02:34:47;;;;;;;27.29;25.11;;;;;;;22.25;65.36;100037.39;;;;-57
2020/08/04 02:37:47;;;;;;;25.92;23.87;;;;;;;22.24;65.34;100040.48;;;;-57
2020/08/04 02:40:47;;;;;;;25.06;22.98;;;;;;;22.24;65.28;100045.05;;;;-57
2020/08/04 02:43:48;;;;;;;27.90;25.64;;;;;;;22.24;65.33;100042.52;;;;-57
2020/08/04 02:46:47;;;;;;;21.35;19.65;;;;;;;22.23;65.27;100045.15;;;;-57
2020/08/04 02:49:47;;;;;;;30.20;27.71;;;;;;;22.23;65.38;100045.62;;;;-57
2020/08/04 02:52:47;;;;;;;21.60;19.80;;;;;;;22.23;65.37;100050.61;;;;-57
2020/08/04 02:55:47;;;;;;;21.82;20.06;;;;;;;22.22;65.32;100053.85;;;;-57
2020/08/04 02:58:47;;;;;;;17.96;16.47;;;;;;;22.22;65.33;100056.87;;;;-57
2020/08/04 03:01:47;;;;;;;20.55;18.87;;;;;;;22.22;65.29;100055.09;;;;-57
2020/08/04 03:04:48;;;;;;;17.83;16.34;;;;;;;22.22;65.33;100060.80;;;;-57
2020/08/04 03:07:47;;;;;;;18.20;16.71;;;;;;;22.22;65.28;100058.44;;;;-57
2020/08/04 03:11:47;;;;;;;16.53;15.16;;;;;;;22.21;65.31;100062.86;;;;-57
2020/08/04 03:14:48;;;;;;;21.15;19.43;;;;;;;22.21;65.27;100065.72;;;;-57
2020/08/04 03:17:48;;;;;;;21.87;20.06;;;;;;;22.20;65.30;100070.38;;;;-57
2020/08/04 03:20:48;;;;;;;27.44;25.28;;;;;;;22.20;65.24;100071.09;;;;-57
2020/08/04 03:23:48;;;;;;;24.99;22.97;;;;;;;22.20;65.22;100076.49;;;;-57
2020/08/04 03:26:48;;;;;;;26.29;24.19;;;;;;;22.20;65.28;100073.47;;;;-57
2020/08/04 03:29:47;;;;;;;26.36;24.25;;;;;;;22.19;65.27;100072.17;;;;-57
2020/08/04 03:32:47;;;;;;;25.23;23.21;;;;;;;22.20;65.14;100074.05;;;;-57
2020/08/04 03:35:48;;;;;;;29.07;26.76;;;;;;;22.19;65.26;100078.06;;;;-57
2020/08/04 03:38:48;;;;;;;24.59;22.57;;;;;;;22.19;65.30;100080.02;;;;-57
2020/08/04 03:41:48;;;;;;;28.15;25.88;;;;;;;22.19;65.22;100083.85;;;;-57
2020/08/04 03:44:48;;;;;;;22.47;20.67;;;;;;;22.19;65.26;100084.59;;;;-57
2020/08/04 03:47:48;;;;;;;28.22;25.95;;;;;;;22.18;65.22;100088.36;;;;-57
2020/08/04 03:50:48;;;;;;;30.03;27.56;;;;;;;22.19;65.23;100091.54;;;;-57
2020/08/04 03:53:47;;;;;;;28.26;25.92;;;;;;;22.18;65.21;100091.14;;;;-57
2020/08/04 03:56:47;;;;;;;30.51;28.06;;;;;;;22.18;65.29;100089.34;;;;-57
2020/08/04 03:59:48;;;;;;;32.10;29.56;;;;;;;22.18;65.25;100088.27;;;;-57
2020/08/04 04:02:47;;;;;;;32.82;30.20;;;;;;;22.17;65.25;100093.75;;;;-57
2020/08/04 04:05:48;;;;;;;30.74;28.31;;;;;;;22.17;65.26;100091.73;;;;-57
2020/08/04 04:08:48;;;;;;;25.51;23.43;;;;;;;22.17;65.22;100088.94;;;;-57
2020/08/04 04:11:47;;;;;;;33.84;31.15;;;;;;;22.17;65.18;100090.25;;;;-57
2020/08/04 04:14:47;;;;;;;33.86;31.19;;;;;;;22.17;65.21;100095.88;;;;-57
2020/08/04 04:17:47;;;;;;;35.65;32.83;;;;;;;22.17;65.17;100098.56;;;;-57
2020/08/04 04:20:47;;;;;;;31.08;28.65;;;;;;;22.17;65.19;100105.11;;;;-57
2020/08/04 04:23:47;;;;;;;36.29;33.43;;;;;;;22.16;65.23;100103.88;;;;-57
2020/08/04 04:26:48;;;;;;;31.15;28.67;;;;;;;22.16;65.19;100108.84;;;;-57
2020/08/04 04:29:47;;;;;;;35.09;32.28;;;;;;;22.16;65.19;100109.98;;;;-57
2020/08/04 04:32:47;;;;;;;28.87;26.53;;;;;;;22.16;65.17;100109.09;;;;-57
2020/08/04 04:35:47;;;;;;;36.87;33.95;;;;;;;22.15;65.19;100112.86;;;;-57
2020/08/04 04:38:48;;;;;;;39.40;36.29;;;;;;;22.15;65.19;100117.52;;;;-57
2020/08/04 04:41:47;;;;;;;32.59;29.98;;;;;;;22.15;65.19;100119.31;;;;-58
2020/08/04 04:44:48;;;;;;;35.39;32.51;;;;;;;22.15;65.19;100124.23;;;;-57
2020/08/04 04:47:47;;;;;;;36.45;33.53;;;;;;;22.14;65.18;100126.50;;;;-57
2020/08/04 04:50:47;;;;;;;33.95;31.25;;;;;;;22.15;65.17;100135.97;;;;-57
2020/08/04 04:53:47;;;;;;;36.54;33.66;;;;;;;22.14;65.21;100142.58;;;;-57
2020/08/04 04:56:47;;;;;;;42.06;38.71;;;;;;;22.14;65.21;100144.38;;;;-57
2020/08/04 04:59:47;;;;;;;35.05;32.23;;;;;;;22.14;65.23;100144.14;;;;-57
2020/08/04 05:02:48;;;;;;;29.82;27.45;;;;;;;22.13;65.24;100151.89;;;;-57
2020/08/04 05:05:47;;;;;;;42.13;38.74;;;;;;;22.13;65.26;100154.36;;;;-58
2020/08/04 05:08:48;;;;;;;42.14;38.69;;;;;;;22.12;65.27;100154.70;;;;-57
2020/08/04 05:11:47;;;;;;;41.09;37.84;;;;;;;22.12;65.21;100155.50;;;;-57
2020/08/04 05:14:47;;;;;;;40.67;37.40;;;;;;;22.13;65.25;100161.14;;;;-57
2020/08/04 05:17:48;;;;;;;42.95;39.58;;;;;;;22.13;65.20;100166.59;;;;-57
2020/08/04 05:21:47;;;;;;;39.57;36.48;;;;;;;22.14;65.42;100168.30;;;;-58
2020/08/04 05:24:47;;;;;;;48.83;44.63;;;;;;;21.97;66.51;100167.95;;;;-56
2020/08/04 05:29:48;;;;;;;63.80;57.99;;;;;;;21.70;67.32;100168.59;;;;-57
2020/08/04 05:32:47;;;;;;;85.97;78.75;;;;;;;21.57;67.42;100170.30;;;;-53
2020/08/04 05:35:47;;;;;;;104.54;96.15;;;;;;;21.48;67.89;100179.93;;;;-53
2020/08/04 05:38:48;;;;;;;110.97;101.95;;;;;;;21.39;68.34;100181.34;;;;-52
2020/08/04 05:41:48;;;;;;;64.70;59.23;;;;;;;21.30;68.80;100180.58;;;;-55
2020/08/04 05:44:47;;;;;;;61.51;56.47;;;;;;;21.20;69.07;100184.77;;;;-55
2020/08/04 05:47:47;;;;;;;59.60;54.49;;;;;;;21.18;69.22;100185.50;;;;-56
2020/08/04 05:50:47;;;;;;;61.93;56.62;;;;;;;21.12;69.76;100189.77;;;;-56
2020/08/04 05:53:47;;;;;;;64.92;59.49;;;;;;;21.02;69.72;100196.34;;;;-55
2020/08/04 05:56:48;;;;;;;66.41;60.68;;;;;;;21.03;69.75;100200.09;;;;-55
2020/08/04 05:59:47;;;;;;;83.35;76.57;;;;;;;20.97;70.08;100204.84;;;;-56
2020/08/04 06:02:48;;;;;;;113.17;103.95;;;;;;;20.91;70.66;100208.78;;;;-55
2020/08/04 06:05:48;;;;;;;124.15;113.97;;;;;;;20.88;70.94;100212.55;;;;-55
2020/08/04 06:08:47;;;;;;;126.13;115.49;;;;;;;20.89;71.51;100217.00;;;;-50
2020/08/04 06:11:47;;;;;;;139.40;127.22;;;;;;;20.85;70.93;100217.98;;;;-51
2020/08/04 06:14:48;;;;;;;154.01;140.99;;;;;;;20.87;71.00;100219.86;;;;-53
2020/08/04 06:17:47;;;;;;;173.70;159.02;;;;;;;20.84;71.58;100224.52;;;;-43
2020/08/04 06:20:47;;;;;;;169.73;155.15;;;;;;;20.79;71.68;100223.48;;;;-44
2020/08/04 06:23:47;;;;;;;262.36;240.00;;;;;;;20.77;71.92;100225.12;;;;-45
2020/08/04 06:26:48;;;;;;;409.69;372.57;;;;;;;20.74;72.15;100234.81;;;;-44
2020/08/04 06:29:47;;;;;;;292.22;267.35;;;;;;;20.74;71.91;100239.61;;;;-44
2020/08/04 06:32:48;;;;;;;311.08;284.39;;;;;;;20.73;72.15;100237.48;;;;-45
2020/08/04 06:35:47;;;;;;;300.83;275.01;;;;;;;20.65;72.64;100236.55;;;;-45
2020/08/04 06:38:47;;;;;;;295.45;270.20;;;;;;;20.68;72.67;100245.01;;;;-45
2020/08/04 06:41:48;;;;;;;252.85;231.00;;;;;;;20.62;72.22;100242.33;;;;-46
2020/08/04 06:44:47;;;;;;;222.07;203.37;;;;;;;20.60;72.62;100249.66;;;;-45
2020/08/04 06:47:47;;;;;;;262.82;240.48;;;;;;;20.55;72.93;100253.71;;;;-44
2020/08/04 06:50:47;;;;;;;288.45;263.69;;;;;;;20.55;73.11;100254.53;;;;-44
2020/08/04 06:53:47;;;;;;;262.92;240.45;;;;;;;20.56;73.13;100260.21;;;;-43
2020/08/04 06:56:48;;;;;;;265.01;242.56;;;;;;;20.51;73.79;100266.74;;;;-44
2020/08/04 06:59:47;;;;;;;238.14;218.07;;;;;;;20.47;73.67;100271.63;;;;-45
2020/08/04 07:02:48;;;;;;;245.27;224.39;;;;;;;20.51;74.19;100269.52;;;;-43
2020/08/04 07:05:47;;;;;;;199.41;182.44;;;;;;;20.49;74.55;100276.59;;;;-45
2020/08/04 07:08:47;;;;;;;226.03;206.46;;;;;;;20.54;74.44;100280.16;;;;-57
2020/08/04 07:11:48;;;;;;;239.16;218.99;;;;;;;20.53;74.28;100286.77;;;;-54
2020/08/04 07:14:48;;;;;;;247.29;226.15;;;;;;;20.50;74.38;100292.73;;;;-58
2020/08/04 07:17:47;;;;;;;231.01;211.76;;;;;;;20.55;73.35;100295.48;;;;-50
2020/08/04 07:20:47;;;;;;;276.21;252.23;;;;;;;20.53;73.23;100295.23;;;;-51
2020/08/04 07:23:47;;;;;;;226.94;207.60;;;;;;;20.53;72.85;100294.75;;;;-51
2020/08/04 07:26:48;;;;;;;110.77;101.91;;;;;;;20.58;72.59;100297.69;;;;-55
2020/08/04 07:29:48;;;;;;;129.69;119.19;;;;;;;20.68;72.21;100297.68;;;;-49
2020/08/04 07:32:47;;;;;;;175.13;160.27;;;;;;;20.74;71.96;100301.59;;;;-48
2020/08/04 07:35:48;;;;;;;197.15;180.39;;;;;;;20.77;71.86;100298.26;;;;-48
2020/08/04 07:38:47;;;;;;;180.68;165.35;;;;;;;20.82;71.59;100297.34;;;;-48
2020/08/04 07:41:48;;;;;;;188.37;172.44;;;;;;;20.85;71.40;100294.31;;;;-49
2020/08/04 07:44:47;;;;;;;175.88;161.11;;;;;;;20.88;71.22;100298.23;;;;-48
2020/08/04 07:47:47;;;;;;;165.02;151.25;;;;;;;20.92;71.02;100298.45;;;;-49
2020/08/04 07:50:48;;;;;;;190.85;174.71;;;;;;;20.95;70.96;100304.15;;;;-49
2020/08/04 07:53:47;;;;;;;191.91;175.65;;;;;;;21.01;70.87;100310.58;;;;-49
2020/08/04 07:56:47;;;;;;;163.78;149.73;;;;;;;21.04;70.93;100310.06;;;;-52
2020/08/04 07:59:47;;;;;;;145.64;133.71;;;;;;;21.07;70.89;100304.94;;;;-50
2020/08/04 08:02:48;;;;;;;178.09;163.16;;;;;;;21.11;70.93;100312.76;;;;-48
2020/08/04 08:05:47;;;;;;;183.76;168.34;;;;;;;21.15;70.89;100315.85;;;;-46
2020/08/04 08:08:48;;;;;;;189.42;173.54;;;;;;;21.18;70.76;100315.34;;;;-50
2020/08/04 08:11:47;;;;;;;51.93;47.55;;;;;;;21.19;70.43;100311.76;;;;-49
2020/08/04 08:14:47;;;;;;;47.39;43.49;;;;;;;21.21;70.60;100309.14;;;;-49
2020/08/04 08:17:47;;;;;;;65.01;59.64;;;;;;;21.22;70.41;100308.23;;;;-49
2020/08/04 08:20:48;;;;;;;103.75;95.45;;;;;;;21.23;70.31;100316.39;;;;-49
2020/08/04 08:23:47;;;;;;;107.77;99.15;;;;;;;21.24;70.26;100311.50;;;;-49
2020/08/04 08:26:48;;;;;;;114.05;104.97;;;;;;;21.25;70.15;100316.88;;;;-50
2020/08/04 08:29:47;;;;;;;131.99;121.41;;;;;;;21.26;69.92;100322.80;;;;-49
2020/08/04 08:32:47;;;;;;;100.35;92.31;;;;;;;21.27;69.81;100325.75;;;;-49
2020/08/04 08:35:47;;;;;;;97.46;89.75;;;;;;;21.29;69.85;100322.88;;;;-49
2020/08/04 08:38:48;;;;;;;85.11;78.36;;;;;;;21.30;69.83;100331.20;;;;-48
2020/08/04 08:41:47;;;;;;;114.59;105.33;;;;;;;21.31;69.81;100332.02;;;;-50
2020/08/04 08:44:48;;;;;;;117.65;108.23;;;;;;;21.32;69.72;100331.52;;;;-50
2020/08/04 08:47:47;;;;;;;120.63;111.05;;;;;;;21.32;69.54;100328.09;;;;-49
2020/08/04 08:50:47;;;;;;;116.49;107.21;;;;;;;21.33;69.44;100322.86;;;;-49
2020/08/04 08:53:47;;;;;;;126.59;116.48;;;;;;;21.34;69.50;100322.30;;;;-49
2020/08/04 08:56:47;;;;;;;111.52;102.43;;;;;;;21.35;69.37;100329.13;;;;-50
2020/08/04 08:59:48;;;;;;;123.18;113.25;;;;;;;21.36;69.36;100333.06;;;;-49
2020/08/04 09:02:48;;;;;;;126.05;115.97;;;;;;;21.37;69.30;100330.76;;;;-49
2020/08/04 09:05:47;;;;;;;100.86;92.76;;;;;;;21.38;69.25;100334.52;;;;-49
2020/08/04 09:08:48;;;;;;;133.45;122.62;;;;;;;21.38;69.17;100326.44;;;;-49
2020/08/04 09:11:47;;;;;;;126.66;116.59;;;;;;;21.39;69.17;100323.67;;;;-50
2020/08/04 09:14:48;;;;;;;105.84;97.51;;;;;;;21.40;69.00;100329.38;;;;-49
2020/08/04 09:17:48;;;;;;;114.27;105.20;;;;;;;21.40;69.02;100327.24;;;;-50
2020/08/04 09:20:48;;;;;;;98.06;90.37;;;;;;;21.41;68.88;100327.97;;;;-49
2020/08/04 09:23:48;;;;;;;122.68;112.93;;;;;;;21.43;68.79;100329.79;;;;-50
2020/08/04 09:26:47;;;;;;;121.42;111.93;;;;;;;21.42;68.79;100329.23;;;;-49
2020/08/04 09:29:47;;;;;;;115.75;106.47;;;;;;;21.44;68.67;100332.81;;;;-49
2020/08/04 09:32:47;;;;;;;134.65;123.81;;;;;;;21.44;68.65;100331.42;;;;-50
2020/08/04 09:35:47;;;;;;;111.80;102.84;;;;;;;21.45;68.65;100338.17;;;;-50
2020/08/04 09:38:47;;;;;;;131.91;120.75;;;;;;;21.46;68.63;100334.27;;;;-51
2020/08/04 09:41:47;;;;;;;108.81;100.09;;;;;;;21.49;68.56;100330.73;;;;-50
2020/08/04 09:44:48;;;;;;;116.25;106.81;;;;;;;21.51;68.75;100324.95;;;;-59
2020/08/04 09:47:47;;;;;;;101.94;93.74;;;;;;;21.53;68.70;100329.59;;;;-53
2020/08/04 09:50:47;;;;;;;123.87;113.85;;;;;;;21.54;68.70;100332.77;;;;-57
2020/08/04 09:53:47;;;;;;;130.50;119.79;;;;;;;21.55;68.63;100330.23;;;;-50
2020/08/04 09:56:47;;;;;;;108.92;100.17;;;;;;;21.55;68.66;100333.41;;;;-53
2020/08/04 09:59:47;;;;;;;130.21;119.71;;;;;;;21.57;68.66;100334.86;;;;-55
2020/08/04 10:02:47;;;;;;;115.57;106.25;;;;;;;21.59;68.65;100339.18;;;;-45
2020/08/04 10:05:47;;;;;;;132.83;121.95;;;;;;;21.60;68.61;100340.01;;;;-46
2020/08/04 10:08:47;;;;;;;154.73;141.79;;;;;;;21.64;68.62;100342.00;;;;-47
2020/08/04 10:11:47;;;;;;;145.64;133.78;;;;;;;21.67;68.43;100337.52;;;;-46
2020/08/04 10:14:48;;;;;;;161.33;147.81;;;;;;;21.69;68.46;100342.00;;;;-47
2020/08/04 10:17:47;;;;;;;160.53;147.11;;;;;;;21.71;68.40;100343.05;;;;-53
2020/08/04 10:20:47;;;;;;;159.63;146.43;;;;;;;21.72;68.41;100340.18;;;;-52
2020/08/04 10:23:47;;;;;;;151.26;138.61;;;;;;;21.74;68.25;100336.83;;;;-57
2020/08/04 10:26:47;;;;;;;157.11;143.75;;;;;;;21.75;68.21;100338.70;;;;-51
2020/08/04 10:29:48;;;;;;;166.75;152.85;;;;;;;21.76;68.20;100341.06;;;;-50
2020/08/04 10:32:48;;;;;;;184.30;168.71;;;;;;;21.75;68.20;100340.02;;;;-50
2020/08/04 10:35:48;;;;;;;163.40;149.61;;;;;;;21.75;68.21;100345.39;;;;-50
2020/08/04 10:38:48;;;;;;;128.68;118.21;;;;;;;21.75;68.06;100346.30;;;;-50
2020/08/04 10:41:48;;;;;;;172.28;157.53;;;;;;;21.75;68.05;100343.27;;;;-50
2020/08/04 10:44:47;;;;;;;31.04;28.53;;;;;;;21.76;67.96;100341.72;;;;-50
2020/08/04 10:47:47;;;;;;;16.68;15.33;;;;;;;21.76;67.92;100341.55;;;;-51
2020/08/04 10:50:48;;;;;;;10.99;9.97;;;;;;;21.76;67.90;100345.13;;;;-50
2020/08/04 10:53:48;;;;;;;12.79;11.61;;;;;;;21.76;67.86;100353.94;;;;-50
2020/08/04 10:56:47;;;;;;;20.90;18.86;;;;;;;21.76;67.81;100358.34;;;;-50
2020/08/04 10:59:48;;;;;;;19.53;17.80;;;;;;;21.76;67.87;100353.79;;;;-50
2020/08/04 11:02:48;;;;;;;16.33;14.87;;;;;;;21.76;67.81;100354.83;;;;-50
2020/08/04 11:05:48;;;;;;;12.94;11.83;;;;;;;21.76;67.75;100356.55;;;;-50
2020/08/04 11:08:48;;;;;;;11.70;10.62;;;;;;;21.76;67.73;100360.62;;;;-50
2020/08/04 11:11:48;;;;;;;6.85;6.21;;;;;;;21.76;67.77;100357.87;;;;-50
2020/08/04 11:14:48;;;;;;;7.63;6.17;;;;;;;21.76;67.59;100359.98;;;;-50
2020/08/04 11:17:47;;;;;;;5.31;4.59;;;;;;;21.77;67.61;100359.64;;;;-49
2020/08/04 11:20:47;;;;;;;6.66;6.11;;;;;;;21.77;67.70;100369.59;;;;-50
2020/08/04 11:23:47;;;;;;;7.33;6.72;;;;;;;21.77;67.58;100365.52;;;;-51
2020/08/04 11:26:47;;;;;;;5.79;5.29;;;;;;;21.77;67.55;100362.34;;;;-50
2020/08/04 11:29:48;;;;;;;7.69;6.97;;;;;;;21.77;67.56;100365.78;;;;-50
2020/08/04 11:32:47;;;;;;;9.39;8.49;;;;;;;21.77;67.56;100357.69;;;;-50
2020/08/04 11:35:48;;;;;;;9.00;8.19;;;;;;;21.77;67.49;100356.70;;;;-50
2020/08/04 11:38:48;;;;;;;10.07;9.25;;;;;;;21.78;67.52;100355.23;;;;-47
2020/08/04 11:41:48;;;;;;;13.77;12.57;;;;;;;21.80;67.46;100351.89;;;;-46
2020/08/04 11:44:48;;;;;;;5.27;4.86;;;;;;;21.83;67.54;100360.75;;;;-55
2020/08/04 11:47:48;;;;;;;7.95;7.34;;;;;;;21.84;67.50;100363.05;;;;-51
2020/08/04 11:50:47;;;;;;;9.59;8.61;;;;;;;21.85;67.48;100359.06;;;;-46
2020/08/04 11:53:48;;;;;;;14.29;12.87;;;;;;;21.87;67.65;100358.29;;;;-48
2020/08/04 11:56:48;;;;;;;17.51;15.93;;;;;;;21.88;67.65;100360.17;;;;-52
2020/08/04 11:59:47;;;;;;;27.43;24.93;;;;;;;21.91;67.53;100365.86;;;;-48
2020/08/04 12:02:48;;;;;;;31.89;29.08;;;;;;;21.92;67.58;100368.72;;;;-48
2020/08/04 12:05:48;;;;;;;33.27;30.60;;;;;;;21.95;67.50;100361.75;;;;-50
2020/08/04 12:08:48;;;;;;;47.66;43.54;;;;;;;21.96;67.80;100364.12;;;;-51
2020/08/04 12:11:48;;;;;;;63.63;58.37;;;;;;;21.98;67.89;100366.97;;;;-45
2020/08/04 12:14:47;;;;;;;65.13;59.33;;;;;;;22.00;67.65;100365.98;;;;-52
2020/08/04 12:17:48;;;;;;;76.02;69.59;;;;;;;22.01;67.77;100362.94;;;;-52
2020/08/04 12:20:48;;;;;;;104.03;95.61;;;;;;;22.01;67.65;100360.00;;;;-58
2020/08/04 12:23:47;;;;;;;96.39;88.79;;;;;;;22.04;67.65;100363.84;;;;-58
2020/08/04 12:26:48;;;;;;;104.23;95.98;;;;;;;22.06;67.68;100363.83;;;;-49
2020/08/04 12:29:48;;;;;;;118.37;108.31;;;;;;;22.08;67.81;100365.59;;;;-47
2020/08/04 12:32:48;;;;;;;126.36;115.69;;;;;;;22.08;67.77;100365.70;;;;-52
2020/08/04 12:35:48;;;;;;;124.28;114.02;;;;;;;22.10;67.86;100366.15;;;;-49
2020/08/04 12:38:48;;;;;;;127.57;111.99;;;;;;;22.14;67.92;100368.08;;;;-53
2020/08/04 12:41:48;;;;;;;104.40;95.55;;;;;;;22.17;67.79;100370.05;;;;-52
2020/08/04 12:44:48;;;;;;;89.14;81.35;;;;;;;22.18;67.65;100373.95;;;;-49
2020/08/04 12:47:47;;;;;;;74.23;67.85;;;;;;;22.19;67.63;100377.62;;;;-43
2020/08/04 12:50:47;;;;;;;83.18;75.86;;;;;;;22.20;67.84;100379.65;;;;-50
2020/08/04 12:53:48;;;;;;;81.08;72.37;;;;;;;22.22;67.89;100384.70;;;;-50
2020/08/04 12:56:47;;;;;;;74.77;67.91;;;;;;;22.23;67.81;100383.09;;;;-46
2020/08/04 12:59:47;;;;;;;63.73;57.87;;;;;;;22.25;67.61;100382.69;;;;-52
2020/08/04 13:02:48;;;;;;;74.18;67.35;;;;;;;22.27;67.49;100384.88;;;;-56
2020/08/04 13:05:48;;;;;;;74.91;67.58;;;;;;;22.29;67.57;100391.88;;;;-47
2020/08/04 13:08:48;;;;;;;73.47;66.39;;;;;;;22.30;67.69;100391.03;;;;-56
2020/08/04 13:11:48;;;;;;;72.25;65.53;;;;;;;22.32;67.71;100390.22;;;;-45
2020/08/04 13:14:47;;;;;;;71.53;64.77;;;;;;;22.33;67.66;100394.47;;;;-52
2020/08/04 13:17:48;;;;;;;67.03;60.59;;;;;;;22.33;67.52;100392.58;;;;-51
2020/08/04 13:20:48;;;;;;;71.98;65.17;;;;;;;22.36;67.51;100385.45;;;;-50
2020/08/04 13:23:48;;;;;;;69.27;62.69;;;;;;;22.38;67.61;100387.97;;;;-46
2020/08/04 13:26:48;;;;;;;33.97;30.57;;;;;;;22.39;67.55;100385.75;;;;-45
2020/08/04 13:29:48;;;;;;;51.32;46.18;;;;;;;22.40;67.52;100393.02;;;;-44
2020/08/04 13:32:48;;;;;;;54.35;48.84;;;;;;;22.40;67.37;100392.52;;;;-49
2020/08/04 13:35:48;;;;;;;57.01;51.80;;;;;;;22.40;67.45;100392.38;;;;-48
2020/08/04 13:38:47;;;;;;;49.90;44.71;;;;;;;22.40;67.46;100386.66;;;;-52
2020/08/04 13:41:47;;;;;;;54.75;44.91;;;;;;;22.41;67.46;100388.38;;;;-44
2020/08/04 13:44:47;;;;;;;50.55;45.69;;;;;;;22.42;67.43;100392.61;;;;-50
2020/08/04 13:47:48;;;;;;;56.50;51.23;;;;;;;22.43;67.29;100403.03;;;;-45
2020/08/04 13:50:47;;;;;;;49.08;44.37;;;;;;;22.45;67.11;100401.97;;;;-48
2020/08/04 13:53:47;;;;;;;54.18;49.13;;;;;;;22.45;67.18;100401.39;;;;-45
2020/08/04 13:56:47;;;;;;;50.47;45.81;;;;;;;22.45;67.04;100400.08;;;;-49
2020/08/04 13:59:48;;;;;;;52.30;46.88;;;;;;;22.43;66.90;100402.87;;;;-46
2020/08/04 14:02:48;;;;;;;56.55;51.37;;;;;;;22.42;67.04;100402.73;;;;-45
2020/08/04 14:05:48;;;;;;;56.68;51.42;;;;;;;22.41;66.96;100401.44;;;;-46
2020/08/04 14:08:48;;;;;;;61.61;56.19;;;;;;;22.40;66.91;100403.39;;;;-46
2020/08/04 14:11:48;;;;;;;69.59;63.58;;;;;;;22.40;66.81;100403.80;;;;-46
2020/08/04 14:14:48;;;;;;;55.41;50.45;;;;;;;22.39;66.86;100400.69;;;;-46
2020/08/04 14:17:47;;;;;;;61.11;55.86;;;;;;;22.38;66.87;100402.59;;;;-46
2020/08/04 14:20:48;;;;;;;53.42;48.55;;;;;;;22.37;66.83;100402.77;;;;-46
2020/08/04 14:23:47;;;;;;;61.37;55.92;;;;;;;22.37;66.74;100402.94;;;;-46
2020/08/04 14:26:47;;;;;;;63.45;57.55;;;;;;;22.36;66.71;100404.08;;;;-45
2020/08/04 14:29:48;;;;;;;69.48;63.21;;;;;;;22.35;66.74;100403.41;;;;-46
2020/08/04 14:32:48;;;;;;;62.57;56.82;;;;;;;22.34;66.71;100406.61;;;;-45
2020/08/04 14:35:47;;;;;;;77.33;70.69;;;;;;;22.33;66.64;100405.41;;;;-46
2020/08/04 14:38:48;;;;;;;84.39;77.40;;;;;;;22.33;66.69;100407.75;;;;-46
2020/08/04 14:41:48;;;;;;;85.65;78.35;;;;;;;22.33;66.67;100404.08;;;;-46
2020/08/04 14:44:48;;;;;;;81.41;74.48;;;;;;;22.33;66.65;100403.75;;;;-46
2020/08/04 14:47:47;;;;;;;68.91;62.97;;;;;;;22.32;66.59;100402.78;;;;-46
2020/08/04 14:50:47;;;;;;;91.37;83.62;;;;;;;22.31;66.70;100401.09;;;;-52
2020/08/04 14:53:48;;;;;;;72.13;65.95;;;;;;;22.30;66.66;100396.09;;;;-51
2020/08/04 14:56:48;;;;;;;56.44;51.43;;;;;;;22.30;66.66;100395.45;;;;-52
2020/08/04 14:59:48;;;;;;;64.32;58.85;;;;;;;22.29;66.75;100394.08;;;;-51
2020/08/04 15:02:48;;;;;;;73.33;67.00;;;;;;;22.31;66.73;100391.29;;;;-47
2020/08/04 15:05:48;;;;;;;84.66;77.31;;;;;;;22.30;66.78;100391.77;;;;-51
2020/08/04 15:08:48;;;;;;;92.70;84.95;;;;;;;22.30;66.87;100395.54;;;;-51
2020/08/04 15:11:47;;;;;;;90.34;82.35;;;;;;;22.30;66.88;100395.36;;;;-51
2020/08/04 15:14:48;;;;;;;74.61;68.13;;;;;;;22.29;66.84;100393.19;;;;-52
2020/08/04 15:17:47;;;;;;;63.64;57.89;;;;;;;22.28;66.80;100392.03;;;;-52
2020/08/04 15:20:47;;;;;;;53.98;48.91;;;;;;;22.28;66.84;100393.91;;;;-52
2020/08/04 15:23:47;;;;;;;62.63;57.09;;;;;;;22.28;66.66;100399.45;;;;-51
2020/08/04 15:26:47;;;;;;;34.01;30.63;;;;;;;22.27;66.67;100396.70;;;;-51
2020/08/04 15:29:48;;;;;;;11.08;2.87;;;;;;;22.26;66.76;100398.91;;;;-51
2020/08/04 15:32:48;;;;;;;10.00;2.59;;;;;;;22.25;66.63;100399.00;;;;-52
2020/08/04 15:35:48;;;;;;;10.06;2.43;;;;;;;22.26;66.54;100395.16;;;;-51
2020/08/04 15:38:48;;;;;;;9.77;2.77;;;;;;;22.26;66.56;100389.77;;;;-51
2020/08/04 15:41:48;;;;;;;6.17;2.70;;;;;;;22.25;66.55;100392.47;;;;-52
2020/08/04 15:44:47;;;;;;;8.43;3.37;;;;;;;22.25;66.53;100391.50;;;;-51
2020/08/04 15:48:47;;;;;;;10.80;3.38;;;;;;;22.25;66.50;100392.81;;;;-51
2020/08/04 15:51:47;;;;;;;6.74;3.25;;;;;;;22.24;66.51;100395.97;;;;-52
2020/08/04 15:54:48;;;;;;;7.15;3.45;;;;;;;22.24;66.52;100394.59;;;;-51
2020/08/04 15:57:47;;;;;;;7.03;3.69;;;;;;;22.23;66.51;100392.70;;;;-51
2020/08/04 16:00:48;;;;;;;5.65;3.23;;;;;;;22.23;66.50;100390.20;;;;-51
2020/08/04 16:03:48;;;;;;;10.21;3.95;;;;;;;22.23;66.46;100394.59;;;;-52
2020/08/04 16:06:48;;;;;;;7.37;3.39;;;;;;;22.22;66.47;100394.81;;;;-52
2020/08/04 16:09:48;;;;;;;5.44;3.71;;;;;;;22.21;66.49;100392.47;;;;-51
2020/08/04 16:12:47;;;;;;;7.35;4.03;;;;;;;22.20;66.48;100392.64;;;;-51
2020/08/04 16:15:47;;;;;;;9.08;5.59;;;;;;;22.20;66.51;100396.30;;;;-52